CheckWX is a tool to help pilots better visualize weather data.  It is not intended as a substitute for an official pre-flight weather briefing.

02:53:44 UTC

KHHG METAR
Huntington Municipal Airport
Huntington, Indiana, USA
Current

19 mins ago

KHHG 210235Z AUTO 32006KT 10SM M07/M12 A3063 RMK AO2 T10711123
Observed
Feb-21 @ 02:35 UTC
Wind
  • 320° at 6 KTS
Visibility
10 SM
Temperature
-7°C / 19°F
Dewpoint
-12°C / 10°F
Humidity
68%
Altimeter
30.63" Hg
Pressure
1037.22 hPa
Previous

39 mins ago

KHHG 210215Z AUTO 32005KT 10SM M07/M12 A3062 RMK AO2 T10701123
Observed
Feb-21 @ 02:15 UTC
Wind
  • 320° at 5 KTS
Visibility
10 SM
Temperature
-7°C / 19°F
Dewpoint
-12°C / 10°F
Humidity
68%
Altimeter
30.62" Hg
Pressure
1036.92 hPa
Previous

59 mins ago

KHHG 210155Z AUTO 32005KT 10SM M07/M12 A3062 RMK AO2 T10661123
Observed
Feb-21 @ 01:55 UTC
Wind
  • 320° at 5 KTS
Visibility
10 SM
Temperature
-7°C / 19°F
Dewpoint
-12°C / 10°F
Humidity
68%
Altimeter
30.62" Hg
Pressure
1036.92 hPa